createdAt,value
2018-12-14T00:00:26.843Z,53.73
2018-12-14T00:00:57.960Z,58.83
2018-12-14T00:01:29.068Z,60.38
2018-12-14T00:02:00.575Z,65.67
2018-12-14T00:02:31.697Z,66.33
2018-12-14T00:03:02.812Z,54.77
2018-12-14T00:03:33.966Z,51.98
2018-12-14T00:04:05.072Z,48.70
2018-12-14T00:04:36.183Z,47.55
2018-12-14T00:05:07.292Z,45.90
2018-12-14T00:05:38.436Z,48.55
2018-12-14T00:06:09.545Z,47.25
2018-12-14T00:06:40.687Z,49.67
2018-12-14T00:07:11.819Z,46.80
2018-12-14T00:07:42.919Z,43.55
2018-12-14T00:08:14.033Z,44.08
2018-12-14T00:08:45.176Z,45.78
2018-12-14T00:09:16.292Z,48.10
2018-12-14T00:09:47.421Z,50.63
2018-12-14T00:10:18.534Z,49.20
2018-12-14T00:10:49.651Z,50.90
2018-12-14T00:11:20.763Z,46.70
2018-12-14T00:11:51.870Z,51.90
2018-12-14T00:12:23.026Z,55.17
2018-12-14T00:12:54.126Z,51.18
2018-12-14T00:13:25.237Z,48.75
2018-12-14T00:13:56.348Z,53.92
2018-12-14T00:14:27.466Z,45.60
2018-12-14T00:14:58.569Z,46.80
2018-12-14T00:15:29.685Z,46.48
2018-12-14T00:16:00.800Z,45.85
2018-12-14T00:16:31.941Z,40.43
2018-12-14T00:17:03.066Z,45.83
2018-12-14T00:17:34.212Z,47.17
2018-12-14T00:18:05.539Z,43.50
2018-12-14T00:18:36.701Z,48.90
2018-12-14T00:19:07.823Z,45.23
2018-12-14T00:19:38.951Z,46.20
2018-12-14T00:20:10.060Z,43.73
2018-12-14T00:20:41.185Z,47.13
2018-12-14T00:21:12.297Z,47.88
2018-12-14T00:21:43.404Z,44.53
2018-12-14T00:22:14.530Z,46.05
2018-12-14T00:22:45.698Z,45.73
2018-12-14T00:23:16.829Z,48.30
2018-12-14T00:23:47.933Z,51.10
2018-12-14T00:24:19.039Z,48.78
2018-12-14T00:24:50.157Z,49.80
2018-12-14T00:25:21.276Z,49.03
2018-12-14T00:25:52.378Z,48.70
2018-12-14T00:26:23.496Z,44.13
2018-12-14T00:26:54.661Z,47.98
2018-12-14T00:27:26.050Z,51.25
2018-12-14T00:27:57.207Z,47.13
2018-12-14T00:28:28.326Z,49.13
2018-12-14T00:28:59.453Z,51.80
2018-12-14T00:29:30.564Z,55.58
2018-12-14T00:30:01.678Z,49.53
2018-12-14T00:30:32.804Z,55.75
2018-12-14T00:31:03.912Z,56.25
2018-12-14T00:31:35.016Z,53.10
2018-12-14T00:32:06.141Z,53.90
2018-12-14T00:32:37.253Z,55.83
2018-12-14T00:33:08.404Z,52.93
2018-12-14T00:33:39.519Z,55.28
2018-12-14T00:34:10.896Z,50.80
2018-12-14T00:34:41.987Z,49.23
2018-12-14T00:35:13.104Z,52.17
2018-12-14T00:35:44.227Z,47.27
2018-12-14T00:36:15.620Z,50.38
2018-12-14T00:36:46.729Z,47.78
2018-12-14T00:37:17.849Z,47.83
2018-12-14T00:37:48.965Z,49.73
2018-12-14T00:38:20.120Z,54.08
2018-12-14T00:38:51.242Z,52.27
2018-12-14T00:39:22.348Z,52.08
2018-12-14T00:39:53.501Z,51.42
2018-12-14T00:40:24.642Z,52.33
2018-12-14T00:40:55.792Z,45.83
2018-12-14T00:41:26.897Z,54.18
2018-12-14T00:41:58.013Z,54.30
2018-12-14T00:42:29.121Z,57.15
2018-12-14T00:43:00.233Z,52.53
2018-12-14T00:43:31.336Z,50.52
2018-12-14T00:44:02.449Z,49.85
2018-12-14T00:44:33.563Z,48.87
2018-12-14T00:45:04.668Z,47.20
2018-12-14T00:45:35.817Z,53.02
2018-12-14T00:46:06.928Z,51.88
2018-12-14T00:46:38.112Z,54.55
2018-12-14T00:47:09.349Z,52.50
2018-12-14T00:47:40.516Z,51.10
2018-12-14T00:48:11.749Z,50.67
2018-12-14T00:48:42.862Z,54.08
2018-12-14T00:49:13.989Z,52.90
2018-12-14T00:49:45.104Z,59.42
2018-12-14T00:50:16.351Z,53.02
2018-12-14T00:50:47.497Z,53.15
2018-12-14T00:51:18.620Z,50.15
2018-12-14T00:51:49.772Z,50.85
2018-12-14T00:52:20.885Z,53.20
2018-12-14T00:52:52.007Z,55.83
2018-12-14T00:53:23.141Z,55.23
2018-12-14T00:53:55.178Z,51.53
2018-12-14T00:54:26.296Z,49.93
2018-12-14T00:54:57.453Z,52.73
2018-12-14T00:55:28.556Z,48.92
2018-12-14T00:55:59.719Z,51.10
2018-12-14T00:56:30.831Z,53.58
2018-12-14T00:57:01.948Z,50.60
2018-12-14T00:57:33.096Z,57.27
2018-12-14T00:58:04.218Z,53.95
2018-12-14T00:58:35.326Z,53.87
2018-12-14T00:59:06.455Z,57.00
2018-12-14T00:59:37.654Z,55.03
2018-12-14T01:00:08.766Z,50.28
2018-12-14T01:00:39.876Z,50.78
2018-12-14T01:01:11.009Z,53.17
2018-12-14T01:01:42.122Z,51.50
2018-12-14T01:02:13.346Z,53.90
2018-12-14T01:02:44.462Z,56.28
2018-12-14T01:03:15.565Z,52.05
2018-12-14T01:03:46.723Z,51.48
2018-12-14T01:04:17.832Z,54.38
2018-12-14T01:04:48.990Z,53.65
2018-12-14T01:05:20.105Z,53.10
2018-12-14T01:05:51.222Z,54.93
2018-12-14T01:06:22.333Z,48.98
2018-12-14T01:06:53.471Z,50.45
2018-12-14T01:07:24.641Z,56.60
2018-12-14T01:07:55.770Z,49.80
2018-12-14T01:08:26.883Z,52.98
2018-12-14T01:08:58.051Z,47.33
2018-12-14T01:09:29.173Z,48.05
2018-12-14T01:10:00.327Z,50.88
2018-12-14T01:10:31.532Z,52.23
2018-12-14T01:11:02.649Z,50.38
2018-12-14T01:11:33.773Z,51.77
2018-12-14T01:12:04.889Z,50.67
2018-12-14T01:12:36.004Z,50.63
2018-12-14T01:13:07.113Z,49.67
2018-12-14T01:13:38.269Z,53.73
2018-12-14T01:14:09.394Z,52.05
2018-12-14T01:14:40.554Z,49.58
2018-12-14T01:15:11.667Z,49.25
2018-12-14T01:15:42.886Z,47.10
2018-12-14T01:16:14.010Z,45.83
2018-12-14T01:16:45.134Z,48.05
2018-12-14T01:17:16.289Z,48.50
2018-12-14T01:17:49.202Z,52.08
2018-12-14T01:18:20.337Z,42.85
2018-12-14T01:18:51.477Z,40.88
2018-12-14T01:19:22.596Z,47.65
2018-12-14T01:19:53.757Z,47.25
2018-12-14T01:20:24.872Z,49.18
2018-12-14T01:20:56.007Z,46.37
2018-12-14T01:21:27.545Z,43.25
2018-12-14T01:21:58.690Z,39.08
2018-12-14T01:22:29.818Z,45.52
2018-12-14T01:23:00.933Z,42.62
2018-12-14T01:23:32.031Z,41.85
2018-12-14T01:24:03.137Z,49.77
2018-12-14T01:24:34.274Z,50.98
2018-12-14T01:25:05.400Z,51.50
2018-12-14T01:25:36.521Z,56.23
2018-12-14T01:26:07.650Z,55.08
2018-12-14T01:26:38.778Z,51.30
2018-12-14T01:27:09.934Z,51.10
2018-12-14T01:27:41.060Z,55.83
2018-12-14T01:28:12.219Z,49.08
2018-12-14T01:28:43.371Z,53.52
2018-12-14T01:29:14.509Z,57.67
2018-12-14T01:29:45.634Z,54.60
2018-12-14T01:30:16.749Z,53.13
2018-12-14T01:30:47.870Z,55.05
2018-12-14T01:31:18.980Z,53.00
2018-12-14T01:31:50.087Z,51.83
2018-12-14T01:32:21.194Z,48.75
2018-12-14T01:32:52.315Z,44.95
2018-12-14T01:33:23.485Z,49.25
2018-12-14T01:33:54.601Z,59.65
2018-12-14T01:34:25.756Z,54.30
2018-12-14T01:34:56.887Z,41.20
2018-12-14T01:35:28.009Z,37.95
2018-12-14T01:35:59.160Z,39.25
2018-12-14T01:36:30.324Z,40.43
2018-12-14T01:37:01.460Z,40.28
2018-12-14T01:37:32.581Z,37.03
2018-12-14T01:38:03.683Z,42.30
2018-12-14T01:38:34.793Z,39.00
2018-12-14T01:39:05.904Z,31.75
2018-12-14T01:39:37.007Z,34.48
2018-12-14T01:40:08.198Z,39.15
2018-12-14T01:40:39.444Z,39.95
2018-12-14T01:41:10.561Z,45.12
2018-12-14T01:41:41.682Z,38.13
2018-12-14T01:42:12.792Z,41.68
2018-12-14T01:42:43.906Z,36.88
2018-12-14T01:43:15.021Z,36.45
2018-12-14T01:43:46.124Z,32.38
2018-12-14T01:44:17.238Z,31.33
2018-12-14T01:44:48.344Z,27.40
2018-12-14T01:45:19.483Z,26.60
2018-12-14T01:45:50.616Z,29.95
2018-12-14T01:46:21.832Z,30.05
2018-12-14T01:46:52.941Z,33.45
2018-12-14T01:47:24.047Z,34.38
2018-12-14T01:47:55.203Z,34.05
2018-12-14T01:48:26.307Z,34.30
2018-12-14T01:48:57.412Z,32.30
2018-12-14T01:49:28.516Z,35.92
2018-12-14T01:49:59.624Z,39.60
2018-12-14T01:50:30.736Z,36.65
2018-12-14T01:51:01.896Z,32.20
2018-12-14T01:51:33.535Z,34.13
2018-12-14T01:52:04.630Z,39.53
2018-12-14T01:52:35.744Z,34.63
2018-12-14T01:53:06.845Z,37.17
2018-12-14T01:53:37.959Z,33.63
2018-12-14T01:54:09.075Z,36.90
2018-12-14T01:54:40.183Z,36.42
2018-12-14T01:55:11.289Z,40.60
2018-12-14T01:55:42.457Z,42.58
2018-12-14T01:56:13.567Z,38.50
2018-12-14T01:56:44.684Z,39.65
2018-12-14T01:57:15.788Z,34.98
2018-12-14T01:57:46.897Z,35.15
2018-12-14T01:58:18.006Z,37.23
2018-12-14T01:58:49.111Z,42.35
2018-12-14T01:59:20.222Z,40.50
2018-12-14T01:59:51.329Z,45.92
2018-12-14T02:00:22.437Z,48.05
2018-12-14T02:00:53.920Z,50.25
2018-12-14T02:01:25.049Z,52.20
2018-12-14T02:01:56.173Z,52.10
2018-12-14T02:02:27.278Z,59.50
2018-12-14T02:02:58.384Z,55.40
2018-12-14T02:03:29.485Z,53.68
2018-12-14T02:04:00.755Z,52.48
2018-12-14T02:04:31.898Z,51.63
2018-12-14T02:05:03.021Z,56.30
2018-12-14T02:05:34.133Z,54.48
2018-12-14T02:06:05.293Z,53.58
2018-12-14T02:06:36.443Z,56.10
2018-12-14T02:07:07.549Z,53.63
2018-12-14T02:07:38.655Z,57.98
2018-12-14T02:08:09.770Z,65.00
2018-12-14T02:08:40.920Z,58.08
2018-12-14T02:09:12.042Z,61.63
2018-12-14T02:09:43.153Z,58.40
2018-12-14T02:10:14.269Z,77.20
2018-12-14T02:10:45.372Z,69.95
2018-12-14T02:11:16.523Z,63.40
2018-12-14T02:11:47.628Z,58.30
2018-12-14T02:12:18.745Z,69.53
2018-12-14T02:12:49.848Z,75.22
2018-12-14T02:13:21.021Z,57.95
2018-12-14T02:13:52.127Z,67.60
2018-12-14T02:14:23.252Z,57.83
2018-12-14T02:14:54.353Z,56.70
2018-12-14T02:15:25.464Z,69.15
2018-12-14T02:15:56.581Z,64.30
2018-12-14T02:16:27.680Z,65.52
2018-12-14T02:16:58.839Z,64.47
2018-12-14T02:17:29.953Z,66.90
2018-12-14T02:18:01.067Z,64.37
2018-12-14T02:18:32.174Z,61.13
2018-12-14T02:19:03.280Z,60.95
2018-12-14T02:19:34.382Z,63.50
2018-12-14T02:20:05.480Z,60.80
2018-12-14T02:20:36.635Z,66.45
2018-12-14T02:21:07.737Z,63.52
2018-12-14T02:21:39.064Z,65.92
2018-12-14T02:22:10.207Z,63.17
2018-12-14T02:22:41.313Z,59.00
2018-12-14T02:23:12.427Z,61.92
2018-12-14T02:23:43.532Z,60.52
2018-12-14T02:24:14.636Z,60.15
2018-12-14T02:24:45.745Z,62.00
2018-12-14T02:25:16.850Z,61.10
2018-12-14T02:25:47.985Z,61.88
2018-12-14T02:26:19.127Z,63.28
2018-12-14T02:26:50.248Z,65.22
2018-12-14T02:27:21.360Z,61.02
2018-12-14T02:27:52.462Z,63.48
2018-12-14T02:28:23.597Z,67.10
2018-12-14T02:28:54.696Z,62.10
2018-12-14T02:29:25.814Z,64.60
2018-12-14T02:29:56.918Z,61.00
2018-12-14T02:30:28.061Z,63.85
2018-12-14T02:30:59.172Z,64.97
2018-12-14T02:31:30.277Z,63.10
2018-12-14T02:32:01.380Z,68.72
2018-12-14T02:32:32.530Z,62.80
2018-12-14T02:33:03.645Z,66.22
2018-12-14T02:33:34.764Z,62.23
2018-12-14T02:34:05.887Z,65.95
2018-12-14T02:34:36.991Z,63.78
2018-12-14T02:35:08.117Z,63.50
2018-12-14T02:35:39.251Z,63.98
2018-12-14T02:36:10.368Z,64.22
2018-12-14T02:36:41.481Z,61.90
2018-12-14T02:37:12.599Z,68.83
2018-12-14T02:37:43.717Z,62.85
2018-12-14T02:38:14.826Z,66.02
2018-12-14T02:38:45.938Z,72.70
2018-12-14T02:39:17.054Z,63.85
2018-12-14T02:39:48.165Z,66.65
2018-12-14T02:40:19.400Z,64.95
2018-12-14T02:40:50.544Z,72.62
2018-12-14T02:41:21.665Z,67.40
2018-12-14T02:41:52.783Z,64.42
2018-12-14T02:42:23.885Z,68.95
2018-12-14T02:42:54.994Z,55.92
2018-12-14T02:43:26.117Z,53.73
2018-12-14T02:43:57.261Z,55.12
2018-12-14T02:44:29.384Z,57.80
2018-12-14T02:45:00.505Z,55.52
2018-12-14T02:45:31.608Z,51.88
2018-12-14T02:46:02.712Z,50.85
2018-12-14T02:46:33.867Z,56.05
2018-12-14T02:47:04.978Z,55.45
2018-12-14T02:47:36.101Z,46.65
2018-12-14T02:48:07.213Z,42.35
2018-12-14T02:48:38.369Z,49.00
2018-12-14T02:49:09.492Z,56.60
2018-12-14T02:49:40.591Z,58.68
2018-12-14T02:50:11.707Z,55.12
2018-12-14T02:50:42.857Z,57.25
2018-12-14T02:51:14.026Z,61.80
2018-12-14T02:51:45.149Z,57.13
2018-12-14T02:52:16.270Z,55.60
2018-12-14T02:52:47.389Z,52.95
2018-12-14T02:53:18.502Z,59.33
2018-12-14T02:53:49.612Z,52.33
2018-12-14T02:54:20.805Z,52.80
2018-12-14T02:54:51.921Z,50.55
2018-12-14T02:55:23.060Z,54.03
2018-12-14T02:55:54.176Z,55.83
2018-12-14T02:56:25.354Z,48.92
2018-12-14T02:56:56.476Z,51.80
2018-12-14T02:57:27.579Z,51.10
2018-12-14T02:57:58.696Z,51.83
2018-12-14T02:58:29.807Z,55.45
2018-12-14T02:59:00.934Z,55.08
2018-12-14T02:59:32.090Z,56.40
2018-12-14T03:00:03.236Z,60.58
2018-12-14T03:00:35.024Z,62.65
2018-12-14T03:01:06.138Z,57.17
2018-12-14T03:01:37.260Z,55.20
2018-12-14T03:02:08.364Z,61.05
2018-12-14T03:02:39.513Z,54.35
2018-12-14T03:03:10.624Z,56.23
2018-12-14T03:03:41.730Z,59.75
2018-12-14T03:04:12.853Z,54.15
2018-12-14T03:04:43.995Z,54.80
2018-12-14T03:05:15.119Z,58.15
2018-12-14T03:05:46.273Z,56.33
2018-12-14T03:06:17.409Z,55.08
2018-12-14T03:06:48.649Z,58.65
2018-12-14T03:07:19.762Z,63.58
2018-12-14T03:07:50.866Z,60.85
2018-12-14T03:08:21.977Z,61.70
2018-12-14T03:08:53.098Z,59.58
2018-12-14T03:09:24.277Z,62.58
2018-12-14T03:09:55.421Z,61.98
2018-12-14T03:10:26.631Z,59.08
2018-12-14T03:10:57.761Z,59.50
2018-12-14T03:11:28.880Z,60.23
2018-12-14T03:12:00.000Z,62.43
2018-12-14T03:12:31.128Z,64.30
2018-12-14T03:13:02.252Z,65.85
2018-12-14T03:13:33.393Z,70.25
2018-12-14T03:14:04.561Z,66.55
2018-12-14T03:14:35.667Z,59.53
2018-12-14T03:15:06.777Z,61.85
2018-12-14T03:15:37.884Z,52.73
2018-12-14T03:16:08.996Z,63.85
2018-12-14T03:16:40.110Z,62.23
2018-12-14T03:17:11.226Z,46.63
2018-12-14T03:17:42.348Z,47.53
2018-12-14T03:18:13.457Z,50.43
2018-12-14T03:18:44.566Z,54.93
2018-12-14T03:19:15.742Z,59.53
2018-12-14T03:19:46.853Z,55.10
2018-12-14T03:20:17.975Z,53.20
2018-12-14T03:20:49.204Z,49.27
2018-12-14T03:21:20.389Z,50.25
2018-12-14T03:21:51.519Z,52.62
2018-12-14T03:22:22.629Z,56.35
2018-12-14T03:22:53.740Z,52.58
2018-12-14T03:23:24.836Z,52.55
2018-12-14T03:23:56.006Z,45.40
2018-12-14T03:24:27.116Z,52.17
2018-12-14T03:24:58.224Z,48.70
2018-12-14T03:25:29.344Z,47.65
2018-12-14T03:26:00.445Z,52.40
2018-12-14T03:26:31.925Z,49.30
2018-12-14T03:27:07.098Z,50.38
2018-12-14T03:27:38.347Z,53.68
2018-12-14T03:28:09.479Z,51.58
2018-12-14T03:28:46.557Z,54.48
2018-12-14T03:29:17.679Z,53.63
2018-12-14T03:29:48.790Z,50.28
2018-12-14T03:30:19.935Z,51.13
2018-12-14T03:30:51.045Z,53.83
2018-12-14T03:31:22.186Z,50.85
2018-12-14T03:31:53.340Z,48.70
2018-12-14T03:32:24.576Z,50.60
2018-12-14T03:32:55.799Z,49.35
2018-12-14T03:33:26.922Z,51.48
2018-12-14T03:33:58.026Z,52.67
2018-12-14T03:34:29.151Z,54.55
2018-12-14T03:35:00.278Z,53.08
2018-12-14T03:35:31.512Z,58.40
2018-12-14T03:36:02.673Z,59.00
2018-12-14T03:36:33.917Z,56.02
2018-12-14T03:37:05.033Z,55.43
2018-12-14T03:37:36.147Z,48.05
2018-12-14T03:38:07.252Z,52.08
2018-12-14T03:38:38.352Z,55.85
2018-12-14T03:39:09.497Z,54.73
2018-12-14T03:39:40.609Z,52.23
2018-12-14T03:40:11.712Z,47.17
2018-12-14T03:40:42.824Z,49.80
2018-12-14T03:41:13.975Z,45.45
2018-12-14T03:41:45.077Z,44.95
2018-12-14T03:42:16.228Z,42.45
2018-12-14T03:42:47.341Z,40.28
2018-12-14T03:43:18.520Z,45.43
2018-12-14T03:43:49.641Z,42.53
2018-12-14T03:44:20.755Z,42.25
2018-12-14T03:44:51.889Z,44.63
2018-12-14T03:45:23.000Z,41.73
2018-12-14T03:45:54.117Z,43.70
2018-12-14T03:46:25.234Z,43.30
2018-12-14T03:46:56.341Z,45.43
2018-12-14T03:47:27.447Z,43.78
2018-12-14T03:47:58.598Z,44.53
2018-12-14T03:48:29.707Z,45.92
2018-12-14T03:49:00.805Z,43.98
2018-12-14T03:49:31.914Z,46.75
2018-12-14T03:50:03.025Z,43.65
2018-12-14T03:50:34.128Z,46.13
2018-12-14T03:51:05.240Z,45.38
2018-12-14T03:51:36.355Z,47.85
2018-12-14T03:52:07.818Z,45.95
2018-12-14T03:52:38.992Z,45.60
2018-12-14T03:53:10.146Z,46.45
2018-12-14T03:53:41.284Z,43.00
2018-12-14T03:54:12.397Z,48.95
2018-12-14T03:54:43.511Z,54.15
2018-12-14T03:55:14.635Z,46.83
2018-12-14T03:55:45.738Z,49.15
2018-12-14T03:56:16.848Z,48.55
2018-12-14T03:56:47.952Z,50.10
2018-12-14T03:57:19.068Z,49.18
2018-12-14T03:57:50.183Z,50.23
2018-12-14T03:58:21.330Z,55.00
2018-12-14T03:58:52.440Z,53.83
2018-12-14T03:59:23.556Z,53.17
2018-12-14T03:59:54.659Z,61.80
2018-12-14T04:00:25.818Z,62.30
2018-12-14T04:00:56.940Z,62.48
2018-12-14T04:01:28.039Z,66.30
2018-12-14T04:01:59.149Z,60.63
2018-12-14T04:02:30.275Z,59.98
2018-12-14T04:03:01.395Z,63.45
2018-12-14T04:03:32.548Z,61.75
2018-12-14T04:04:03.662Z,62.85
2018-12-14T04:04:34.775Z,64.00
2018-12-14T04:05:05.903Z,61.37
2018-12-14T04:05:37.021Z,61.35
2018-12-14T04:06:08.141Z,64.70
2018-12-14T04:06:39.278Z,69.42
2018-12-14T04:07:10.398Z,63.00
2018-12-14T04:07:41.509Z,69.17
2018-12-14T04:08:12.617Z,61.92
2018-12-14T04:08:43.768Z,64.80
2018-12-14T04:09:14.890Z,60.90
2018-12-14T04:09:49.487Z,63.02
2018-12-14T04:10:20.631Z,64.32
2018-12-14T04:10:51.755Z,60.80
2018-12-14T04:11:22.984Z,63.80
2018-12-14T04:11:54.098Z,63.55
2018-12-14T04:12:25.216Z,59.18
2018-12-14T04:12:56.344Z,67.37
2018-12-14T04:13:27.456Z,60.67
2018-12-14T04:13:59.598Z,60.08
2018-12-14T04:14:30.703Z,61.53
2018-12-14T04:15:01.819Z,64.30
2018-12-14T04:15:32.935Z,66.25
2018-12-14T04:16:04.057Z,64.90
2018-12-14T04:16:35.216Z,69.40
2018-12-14T04:17:06.332Z,64.90
2018-12-14T04:17:37.451Z,67.65
2018-12-14T04:18:08.569Z,68.02
2018-12-14T04:18:39.685Z,66.05
2018-12-14T04:19:10.820Z,65.75
2018-12-14T04:19:41.955Z,64.90
2018-12-14T04:20:13.134Z,64.05
2018-12-14T04:20:44.253Z,65.22
2018-12-14T04:21:15.361Z,67.58
2018-12-14T04:21:46.487Z,62.27
2018-12-14T04:22:17.643Z,68.97
2018-12-14T04:22:48.759Z,65.67
2018-12-14T04:23:19.869Z,62.85
2018-12-14T04:23:50.994Z,65.65
2018-12-14T04:24:22.099Z,69.20
2018-12-14T04:24:54.503Z,68.05
2018-12-14T04:25:25.748Z,65.22
2018-12-14T04:25:56.917Z,66.15
2018-12-14T04:26:28.039Z,65.05
2018-12-14T04:26:59.160Z,67.42
2018-12-14T04:27:30.414Z,59.73
2018-12-14T04:28:01.545Z,58.20
2018-12-14T04:28:32.789Z,65.20
2018-12-14T04:29:03.901Z,65.95
2018-12-14T04:29:35.048Z,64.05
2018-12-14T04:30:06.194Z,66.95
2018-12-14T04:30:37.320Z,63.90
2018-12-14T04:31:08.443Z,68.85
2018-12-14T04:31:39.548Z,63.23
2018-12-14T04:32:10.660Z,70.12
2018-12-14T04:32:41.779Z,65.92
2018-12-14T04:33:12.965Z,60.63
2018-12-14T04:33:44.082Z,58.80
2018-12-14T04:34:15.191Z,58.83
2018-12-14T04:34:46.298Z,65.05
2018-12-14T04:35:17.411Z,60.40
2018-12-14T04:35:48.525Z,68.17
2018-12-14T04:36:19.644Z,62.78
2018-12-14T04:36:50.811Z,64.40
2018-12-14T04:37:21.926Z,57.55
2018-12-14T04:37:53.057Z,53.05
2018-12-14T04:38:24.180Z,60.52
2018-12-14T04:38:55.289Z,63.58
2018-12-14T04:39:26.502Z,60.15
2018-12-14T04:39:57.697Z,59.48
2018-12-14T04:41:07.504Z,58.92
2018-12-14T04:41:38.622Z,58.40
2018-12-14T04:42:09.728Z,61.20
2018-12-14T04:42:40.841Z,60.28
2018-12-14T04:43:11.947Z,61.63
2018-12-14T04:43:43.057Z,39.88
2018-12-14T04:44:14.200Z,44.48
2018-12-14T04:44:45.314Z,45.08
2018-12-14T04:45:16.449Z,44.63
2018-12-14T04:45:47.566Z,55.98
2018-12-14T04:46:18.669Z,55.30
2018-12-14T04:46:49.805Z,54.45
2018-12-14T04:47:20.917Z,49.67
2018-12-14T04:47:52.027Z,57.20
2018-12-14T04:48:23.135Z,52.90
2018-12-14T04:48:54.271Z,57.13
2018-12-14T04:49:26.318Z,52.30
2018-12-14T04:49:57.431Z,50.55
2018-12-14T04:50:28.534Z,53.75
2018-12-14T04:50:59.651Z,53.83
2018-12-14T04:51:30.784Z,55.40
2018-12-14T04:52:01.897Z,54.55
2018-12-14T04:52:33.003Z,48.87
2018-12-14T04:53:04.154Z,48.38
2018-12-14T04:53:35.269Z,44.75
2018-12-14T04:54:06.382Z,46.88
2018-12-14T04:54:37.497Z,46.90
2018-12-14T04:55:08.611Z,46.68
2018-12-14T04:55:39.757Z,50.05
2018-12-14T04:56:10.883Z,52.10
2018-12-14T04:56:42.009Z,54.27
2018-12-14T04:57:13.119Z,57.53
2018-12-14T04:57:44.258Z,52.25
2018-12-14T04:58:15.360Z,54.50
2018-12-14T04:58:46.473Z,51.90
2018-12-14T04:59:17.658Z,49.58
2018-12-14T04:59:48.828Z,49.88
2018-12-14T05:00:19.996Z,48.00
2018-12-14T05:00:51.106Z,44.48
2018-12-14T05:01:22.222Z,43.65
2018-12-14T05:01:53.343Z,43.63
2018-12-14T05:02:24.502Z,47.08
2018-12-14T05:02:55.622Z,48.23
2018-12-14T05:03:26.745Z,47.08
2018-12-14T05:03:57.848Z,42.20
2018-12-14T05:04:28.970Z,43.48
2018-12-14T05:05:00.126Z,45.60
2018-12-14T05:05:31.244Z,50.70
2018-12-14T05:06:02.362Z,48.68
2018-12-14T05:06:33.478Z,49.80
2018-12-14T05:07:04.607Z,45.95
2018-12-14T05:07:35.730Z,47.10
2018-12-14T05:08:06.844Z,51.68
2018-12-14T05:08:37.954Z,48.80
2018-12-14T05:09:09.078Z,51.05
2018-12-14T05:09:40.192Z,52.13
2018-12-14T05:10:11.379Z,50.75
2018-12-14T05:10:42.505Z,50.83
2018-12-14T05:11:13.615Z,53.05
2018-12-14T05:11:44.724Z,46.48
2018-12-14T05:12:15.838Z,46.30
2018-12-14T05:12:46.964Z,48.23
2018-12-14T05:13:18.084Z,49.40
2018-12-14T05:13:49.207Z,50.12
2018-12-14T05:14:20.320Z,51.83
2018-12-14T05:14:51.435Z,44.50
2018-12-14T05:15:22.595Z,41.65
2018-12-14T05:15:53.725Z,49.55
2018-12-14T05:16:24.866Z,44.18
2018-12-14T05:16:56.021Z,41.92
2018-12-14T05:17:27.172Z,45.03
2018-12-14T05:17:58.292Z,47.85
2018-12-14T05:18:29.395Z,45.17
2018-12-14T05:19:00.514Z,40.73
2018-12-14T05:19:31.643Z,41.05
2018-12-14T05:20:02.762Z,42.73
2018-12-14T05:20:33.864Z,44.50
2018-12-14T05:21:04.964Z,40.52
2018-12-14T05:21:36.077Z,41.13
2018-12-14T05:22:07.202Z,42.62
2018-12-14T05:22:38.371Z,39.90
2018-12-14T05:23:09.542Z,41.70
2018-12-14T05:23:40.642Z,45.85
2018-12-14T05:24:11.749Z,45.10
2018-12-14T05:24:42.868Z,43.23
2018-12-14T05:25:13.973Z,46.48
2018-12-14T05:25:45.085Z,41.20
2018-12-14T05:26:16.242Z,44.35
2018-12-14T05:26:47.406Z,45.33
2018-12-14T05:27:18.536Z,40.20
2018-12-14T05:27:49.646Z,40.08
2018-12-14T05:28:20.752Z,42.75
2018-12-14T05:28:51.852Z,40.78
2018-12-14T05:29:22.951Z,40.50
2018-12-14T05:29:54.073Z,41.58
2018-12-14T05:30:25.235Z,40.73
2018-12-14T05:30:56.367Z,45.80
2018-12-14T05:31:27.493Z,38.63
2018-12-14T05:31:58.626Z,38.55
2018-12-14T05:32:29.740Z,40.58
2018-12-14T05:33:00.861Z,38.48
2018-12-14T05:33:31.977Z,41.98
2018-12-14T05:34:03.139Z,36.35
2018-12-14T05:34:34.255Z,38.10
2018-12-14T05:35:05.374Z,38.98
2018-12-14T05:35:36.487Z,41.85
2018-12-14T05:36:07.609Z,42.45
2018-12-14T05:36:38.715Z,42.05
2018-12-14T05:37:09.820Z,41.88
2018-12-14T05:37:40.929Z,38.42
2018-12-14T05:38:12.032Z,39.63
2018-12-14T05:38:43.144Z,40.67
2018-12-14T05:39:14.289Z,41.05
2018-12-14T05:39:45.521Z,40.15
2018-12-14T05:40:16.630Z,42.95
2018-12-14T05:40:47.760Z,43.20
2018-12-14T05:41:18.876Z,44.45
2018-12-14T05:41:49.990Z,44.00
2018-12-14T05:42:21.097Z,41.63
2018-12-14T05:42:52.225Z,43.35
2018-12-14T05:43:23.332Z,42.13
2018-12-14T05:43:54.446Z,42.83
2018-12-14T05:44:25.599Z,40.98
2018-12-14T05:44:56.742Z,43.87
2018-12-14T05:45:27.861Z,45.67
2018-12-14T05:45:58.973Z,37.73
2018-12-14T05:46:30.089Z,39.67
2018-12-14T05:47:01.197Z,40.80
2018-12-14T05:47:32.348Z,40.65
2018-12-14T05:48:03.473Z,39.58
2018-12-14T05:48:34.597Z,36.80
2018-12-14T05:49:05.709Z,35.63
2018-12-14T05:49:36.825Z,35.83
2018-12-14T05:50:07.973Z,38.48
2018-12-14T05:50:39.084Z,36.85
2018-12-14T05:51:10.249Z,36.58
2018-12-14T05:51:41.353Z,34.40
2018-12-14T05:52:12.457Z,29.42
2018-12-14T05:52:43.568Z,31.20
2018-12-14T05:53:14.674Z,31.00
2018-12-14T05:53:45.791Z,34.27
2018-12-14T05:54:16.913Z,37.45
2018-12-14T05:54:48.031Z,32.88
2018-12-14T05:55:19.149Z,33.65
2018-12-14T05:55:50.276Z,34.65
2018-12-14T05:56:21.419Z,37.35
2018-12-14T05:56:52.566Z,34.78
2018-12-14T05:57:23.675Z,35.63
2018-12-14T05:57:54.787Z,36.35
2018-12-14T05:58:26.023Z,36.80
2018-12-14T05:58:57.247Z,37.60
2018-12-14T05:59:28.360Z,34.78
2018-12-14T05:59:59.489Z,37.70
2018-12-14T06:00:30.636Z,38.02
2018-12-14T06:01:01.741Z,38.55
2018-12-14T06:01:33.103Z,36.68
2018-12-14T06:02:04.224Z,32.60
2018-12-14T06:02:35.345Z,34.70
2018-12-14T06:03:06.464Z,37.98
2018-12-14T06:03:37.577Z,30.17
2018-12-14T06:04:08.692Z,36.45
2018-12-14T06:04:39.805Z,37.35
2018-12-14T06:05:10.948Z,38.10
2018-12-14T06:05:42.068Z,36.23
2018-12-14T06:06:13.209Z,32.85
2018-12-14T06:06:44.385Z,33.42
2018-12-14T06:07:15.506Z,34.67
2018-12-14T06:07:46.622Z,35.40
2018-12-14T06:08:17.754Z,39.95
2018-12-14T06:08:48.864Z,36.85
2018-12-14T06:09:19.984Z,34.40
2018-12-14T06:09:51.100Z,38.92
2018-12-14T06:10:22.216Z,35.92
2018-12-14T06:10:53.514Z,39.38
2018-12-14T06:11:24.694Z,38.53
2018-12-14T06:11:55.836Z,38.15
2018-12-14T06:12:26.954Z,36.20
2018-12-14T06:12:58.072Z,35.45
2018-12-14T06:13:29.190Z,38.23
2018-12-14T06:14:00.296Z,35.08
2018-12-14T06:14:31.410Z,36.25
2018-12-14T06:15:02.541Z,38.90
2018-12-14T06:15:33.666Z,34.73
2018-12-14T06:16:04.780Z,38.23
2018-12-14T06:16:35.943Z,34.55
2018-12-14T06:17:07.061Z,36.38
2018-12-14T06:17:38.173Z,39.20
2018-12-14T06:18:09.285Z,39.23
2018-12-14T06:18:40.432Z,39.90
2018-12-14T06:19:11.587Z,42.40
2018-12-14T06:19:42.706Z,40.50
2018-12-14T06:20:13.820Z,41.60
2018-12-14T06:20:44.922Z,41.77
2018-12-14T06:21:16.039Z,41.98
2018-12-14T06:21:47.154Z,44.60
2018-12-14T06:22:18.266Z,42.60
2018-12-14T06:22:49.379Z,41.55
2018-12-14T06:23:20.512Z,40.65
2018-12-14T06:23:51.636Z,48.55
2018-12-14T06:24:22.781Z,42.03
2018-12-14T06:24:53.902Z,44.60
2018-12-14T06:25:25.014Z,39.53
2018-12-14T06:25:56.128Z,37.13
2018-12-14T06:26:27.237Z,38.55
2018-12-14T06:26:58.352Z,45.10
2018-12-14T06:27:30.410Z,40.55
2018-12-14T06:28:01.529Z,47.53
2018-12-14T06:28:32.678Z,46.98
2018-12-14T06:29:03.786Z,46.30
2018-12-14T06:29:34.901Z,45.23
2018-12-14T06:30:06.009Z,41.25
2018-12-14T06:30:37.113Z,37.17
2018-12-14T06:31:08.269Z,39.20
2018-12-14T06:31:39.370Z,40.45
2018-12-14T06:32:10.471Z,38.23
2018-12-14T06:32:41.589Z,42.78
2018-12-14T06:33:12.713Z,42.53
2018-12-14T06:33:43.823Z,38.75
2018-12-14T06:34:14.972Z,37.73
2018-12-14T06:34:46.086Z,43.95
2018-12-14T06:35:17.207Z,50.55
2018-12-14T06:35:48.388Z,50.10
2018-12-14T06:36:19.563Z,52.27
2018-12-14T06:36:50.670Z,43.38
2018-12-14T06:37:21.788Z,46.50
2018-12-14T06:37:52.902Z,48.35
2018-12-14T06:38:24.017Z,50.92
2018-12-14T06:38:55.128Z,49.48
2018-12-14T06:39:26.268Z,51.77
2018-12-14T06:39:57.373Z,55.17
2018-12-14T06:40:28.480Z,49.63
2018-12-14T06:40:59.595Z,51.95
2018-12-14T06:41:30.714Z,49.85
2018-12-14T06:42:01.827Z,43.90